Elmora, New Jersey
Current Conditions -  °F | °C
As of 8:55 AM on Wednesday 26 Nov 2014 (Local Time) from KLDJ Reporting Station
Moderate Rain Moderate Rain  
Wind Chill: 37°   Ceiling: 1200
Heat Index: 43°   Visibility: 5mi
Dew Point: 39°   Wind: 9mph
Humidity: 85%   Direction: 40°NE
Pressure: 30.14"   Gusts: 16mph
Location:  40.6531°N, 74.2169°W
Report Text: KLDJ 261355Z AUTO 04008G14KT 5SM RA BKN012 OVC019 06/04 A3014 RMK AO2 P0007 T00600037
Loading
Personal Weather Stations






























Interactive Weather Map New forecast layout! Learn more

10-Day Weather Forecast

Advertisements
Track Severe Weather on mobile